createdAt,value
2019-03-08T00:01:54.339Z,18.90
2019-03-08T00:04:22.500Z,18.90
2019-03-08T00:06:50.667Z,18.80
2019-03-08T00:09:18.844Z,18.80
2019-03-08T00:11:46.768Z,18.80
2019-03-08T00:14:15.065Z,18.80
2019-03-08T00:16:43.515Z,18.80
2019-03-08T00:19:11.719Z,18.80
2019-03-08T00:21:39.563Z,18.80
2019-03-08T00:24:07.680Z,18.80
2019-03-08T00:26:35.523Z,18.80
2019-03-08T00:29:03.720Z,18.80
2019-03-08T00:31:31.848Z,18.80
2019-03-08T00:34:00.075Z,18.80
2019-03-08T00:36:28.075Z,18.80
2019-03-08T00:38:56.207Z,18.70
2019-03-08T00:41:24.086Z,18.80
2019-03-08T00:43:52.347Z,18.70
2019-03-08T00:46:20.221Z,18.70
2019-03-08T00:48:48.067Z,18.70
2019-03-08T00:51:16.009Z,18.70
2019-03-08T00:53:43.928Z,18.70
2019-03-08T00:56:11.804Z,18.70
2019-03-08T00:58:39.730Z,18.70
2019-03-08T01:01:07.596Z,18.70
2019-03-08T01:03:35.616Z,18.70
2019-03-08T01:06:03.760Z,18.70
2019-03-08T01:08:31.603Z,18.60
2019-03-08T01:10:59.545Z,18.60
2019-03-08T01:13:27.474Z,18.70
2019-03-08T01:15:55.407Z,18.60
2019-03-08T01:18:23.251Z,18.60
2019-03-08T01:20:51.128Z,18.60
2019-03-08T01:23:19.040Z,18.60
2019-03-08T01:25:46.924Z,18.60
2019-03-08T01:28:14.904Z,18.60
2019-03-08T01:30:42.992Z,18.60
2019-03-08T01:33:11.059Z,18.60
2019-03-08T01:35:39.066Z,18.60
2019-03-08T01:38:06.989Z,18.60
2019-03-08T01:40:34.835Z,18.60
2019-03-08T01:43:02.691Z,18.60
2019-03-08T01:45:30.536Z,18.60
2019-03-08T01:47:59.019Z,18.60
2019-03-08T01:50:27.142Z,18.60
2019-03-08T01:52:55.452Z,18.60
2019-03-08T01:55:23.640Z,18.50
2019-03-08T01:57:51.836Z,18.50
2019-03-08T02:00:19.988Z,18.50
2019-03-08T02:02:48.163Z,18.50
2019-03-08T02:05:16.383Z,18.50
2019-03-08T02:07:44.612Z,18.50
2019-03-08T02:10:12.839Z,18.50
2019-03-08T02:12:42.093Z,18.50
2019-03-08T02:15:11.367Z,18.50
2019-03-08T02:17:39.219Z,18.50
2019-03-08T02:20:08.244Z,18.50
2019-03-08T02:22:36.094Z,18.50
2019-03-08T02:25:04.139Z,18.50
2019-03-08T02:27:31.983Z,18.40
2019-03-08T02:29:59.823Z,18.40
2019-03-08T02:32:27.707Z,18.40
2019-03-08T02:34:55.626Z,18.40
2019-03-08T02:37:23.833Z,18.40
2019-03-08T02:39:51.751Z,18.40
2019-03-08T02:42:19.620Z,18.40
2019-03-08T02:44:47.531Z,18.40
2019-03-08T02:47:15.403Z,18.40
2019-03-08T02:49:43.244Z,18.40
2019-03-08T02:52:11.115Z,18.40
2019-03-08T02:54:38.959Z,18.40
2019-03-08T02:57:07.259Z,18.40
2019-03-08T02:59:35.456Z,18.30
2019-03-08T03:02:03.331Z,18.30
2019-03-08T03:04:31.172Z,18.30
2019-03-08T03:06:59.545Z,18.30
2019-03-08T03:09:27.391Z,18.30
2019-03-08T03:11:55.611Z,18.20
2019-03-08T03:14:23.835Z,18.20
2019-03-08T03:16:51.708Z,18.30
2019-03-08T03:19:19.550Z,18.30
2019-03-08T03:21:47.791Z,18.30
2019-03-08T03:24:15.961Z,18.20
2019-03-08T03:26:43.903Z,18.20
2019-03-08T03:29:12.080Z,18.20
2019-03-08T03:31:39.928Z,18.20
2019-03-08T03:34:08.303Z,18.20
2019-03-08T03:36:36.803Z,18.20
2019-03-08T03:39:06.169Z,18.10
2019-03-08T03:41:34.090Z,18.20
2019-03-08T03:44:03.572Z,18.20
2019-03-08T03:46:31.522Z,18.20
2019-03-08T03:48:59.741Z,18.20
2019-03-08T03:51:28.309Z,18.10
2019-03-08T03:53:56.224Z,18.10
2019-03-08T03:56:24.099Z,18.10
2019-03-08T03:58:51.940Z,18.10
2019-03-08T04:01:30.111Z,18.10
2019-03-08T04:03:57.956Z,18.10
2019-03-08T04:06:26.152Z,18.10
2019-03-08T04:08:54.347Z,18.10
2019-03-08T04:11:22.219Z,18.10
2019-03-08T04:13:50.064Z,18.10
2019-03-08T04:16:17.945Z,18.10
2019-03-08T04:18:45.859Z,18.00
2019-03-08T04:21:14.164Z,18.10
2019-03-08T04:23:42.083Z,18.00
2019-03-08T04:26:10.340Z,18.00
2019-03-08T04:28:38.187Z,18.00
2019-03-08T04:31:06.352Z,18.00
2019-03-08T04:33:34.195Z,18.00
2019-03-08T04:36:03.000Z,18.00
2019-03-08T04:38:30.925Z,18.00
2019-03-08T04:40:58.799Z,18.10
2019-03-08T04:43:26.644Z,18.00
2019-03-08T04:45:54.771Z,18.00
2019-03-08T04:48:22.949Z,18.00
2019-03-08T04:50:51.121Z,18.00
2019-03-08T04:53:19.394Z,18.00
2019-03-08T04:55:47.340Z,18.00
2019-03-08T04:58:15.391Z,18.00
2019-03-08T05:00:43.240Z,17.90
2019-03-08T05:03:11.383Z,17.90
2019-03-08T05:05:39.378Z,17.90
2019-03-08T05:08:07.400Z,18.00
2019-03-08T05:10:35.691Z,17.90
2019-03-08T05:13:03.599Z,17.90
2019-03-08T05:15:31.447Z,17.90
2019-03-08T05:17:59.315Z,17.90
2019-03-08T05:20:27.160Z,17.90
2019-03-08T05:22:56.452Z,17.90
2019-03-08T05:25:24.703Z,17.90
2019-03-08T05:27:52.928Z,17.90
2019-03-08T05:30:21.076Z,17.90
2019-03-08T05:32:48.959Z,17.90
2019-03-08T05:35:16.824Z,17.90
2019-03-08T05:37:46.621Z,17.80
2019-03-08T05:40:14.703Z,17.80
2019-03-08T05:42:42.576Z,17.80
2019-03-08T05:45:10.729Z,17.80
2019-03-08T05:47:38.596Z,17.80
2019-03-08T05:50:06.775Z,17.80
2019-03-08T05:52:35.046Z,17.80
2019-03-08T05:55:03.172Z,17.90
2019-03-08T05:57:31.393Z,17.80
2019-03-08T05:59:59.231Z,17.90
2019-03-08T06:02:27.181Z,17.80
2019-03-08T06:04:55.400Z,17.90
2019-03-08T06:07:23.391Z,17.90
2019-03-08T06:09:51.615Z,17.90
2019-03-08T06:12:19.861Z,17.90
2019-03-08T06:14:47.780Z,17.90
2019-03-08T06:17:15.651Z,17.90
2019-03-08T06:19:43.495Z,17.90
2019-03-08T06:22:11.344Z,17.90
2019-03-08T06:24:39.187Z,18.00
2019-03-08T06:27:07.628Z,18.00
2019-03-08T06:29:35.903Z,18.00
2019-03-08T06:32:03.867Z,18.10
2019-03-08T06:34:32.922Z,18.10
2019-03-08T06:37:00.879Z,18.10
2019-03-08T06:39:28.727Z,18.10
2019-03-08T06:41:56.651Z,18.20
2019-03-08T06:44:25.152Z,18.20
2019-03-08T06:46:53.444Z,18.30
2019-03-08T06:49:21.291Z,18.30
2019-03-08T06:51:49.139Z,18.40
2019-03-08T06:54:16.988Z,18.40
2019-03-08T06:56:44.839Z,18.40
2019-03-08T06:59:18.037Z,18.50
2019-03-08T07:01:46.171Z,18.50
2019-03-08T07:04:14.019Z,18.60
2019-03-08T07:06:41.939Z,18.60
2019-03-08T07:09:09.802Z,18.60
2019-03-08T07:11:37.707Z,18.70
2019-03-08T07:14:05.947Z,18.70
2019-03-08T07:16:34.090Z,18.80
2019-03-08T07:19:01.931Z,18.80
2019-03-08T07:21:47.767Z,18.80
2019-03-08T07:24:34.338Z,18.90
2019-03-08T07:27:20.316Z,18.90
2019-03-08T07:30:06.622Z,18.90
2019-03-08T07:33:03.039Z,19.00
2019-03-08T07:35:50.393Z,19.00
2019-03-08T07:38:43.567Z,19.00
2019-03-08T07:41:36.507Z,19.00
2019-03-08T07:44:29.555Z,19.00
2019-03-08T07:47:16.056Z,19.10
2019-03-08T07:49:58.655Z,19.10
2019-03-08T07:52:41.491Z,19.10
2019-03-08T07:55:31.612Z,19.10
2019-03-08T07:58:21.752Z,19.10
2019-03-08T08:01:04.158Z,19.10
2019-03-08T08:03:54.260Z,19.10
2019-03-08T08:06:53.651Z,19.10
2019-03-08T08:09:46.723Z,19.20
2019-03-08T08:12:43.103Z,19.20
2019-03-08T08:15:28.764Z,19.20
2019-03-08T08:18:18.631Z,19.20
2019-03-08T08:21:09.303Z,19.20
2019-03-08T08:23:55.284Z,19.20
2019-03-08T08:26:29.695Z,19.20
2019-03-08T08:29:16.748Z,19.20
2019-03-08T08:32:06.996Z,19.20
2019-03-08T08:34:58.951Z,19.30
2019-03-08T08:37:38.311Z,19.20
2019-03-08T08:40:14.760Z,19.20
2019-03-08T08:43:07.827Z,19.20
2019-03-08T08:45:54.885Z,19.20
2019-03-08T08:48:41.935Z,19.20
2019-03-08T08:51:32.000Z,19.30
2019-03-08T08:54:18.996Z,19.30
2019-03-08T08:57:05.963Z,19.30
2019-03-08T08:59:48.308Z,19.20
2019-03-08T09:02:25.875Z,19.30
2019-03-08T09:05:13.247Z,19.30
2019-03-08T09:08:03.500Z,19.30
2019-03-08T09:10:50.553Z,19.30
2019-03-08T09:13:52.904Z,19.30
2019-03-08T09:16:46.184Z,19.30
2019-03-08T09:19:24.668Z,19.40
2019-03-08T09:22:26.962Z,19.30
2019-03-08T09:25:22.806Z,19.30
2019-03-08T09:28:10.003Z,19.40
2019-03-08T09:30:43.720Z,19.40
2019-03-08T09:33:23.828Z,19.40
2019-03-08T09:36:05.219Z,19.40
2019-03-08T09:39:01.282Z,19.40
2019-03-08T09:41:44.960Z,19.40
2019-03-08T09:44:35.016Z,19.40
2019-03-08T09:47:14.401Z,19.40
2019-03-08T09:50:00.139Z,19.40
2019-03-08T09:52:34.175Z,19.40
2019-03-08T09:55:06.887Z,19.40
2019-03-08T09:57:57.123Z,19.40
2019-03-08T10:00:44.094Z,19.40
2019-03-08T10:03:30.280Z,19.40
2019-03-08T10:06:03.999Z,19.40
2019-03-08T10:08:53.844Z,19.40
2019-03-08T10:11:39.268Z,19.50
2019-03-08T10:14:31.172Z,19.50
2019-03-08T10:17:17.471Z,19.50
2019-03-08T10:19:54.246Z,19.50
2019-03-08T10:22:44.388Z,19.50
2019-03-08T10:25:22.363Z,19.50
2019-03-08T10:28:12.117Z,19.50
2019-03-08T10:31:02.566Z,19.50
2019-03-08T10:33:58.820Z,19.50
2019-03-08T10:36:45.798Z,19.50
2019-03-08T10:39:20.780Z,19.50
2019-03-08T10:42:10.544Z,19.50
2019-03-08T10:44:57.521Z,19.50
2019-03-08T10:47:37.531Z,19.50
2019-03-08T10:50:12.980Z,19.50
2019-03-08T10:52:45.250Z,19.60
2019-03-08T10:55:41.699Z,19.60
2019-03-08T10:58:37.789Z,19.60
2019-03-08T11:01:14.588Z,19.60
2019-03-08T11:04:01.888Z,19.60
2019-03-08T11:06:52.288Z,19.60
2019-03-08T11:09:48.331Z,19.60
2019-03-08T11:12:35.296Z,19.60
2019-03-08T11:15:31.457Z,19.60
2019-03-08T11:18:21.744Z,19.60
2019-03-08T11:21:02.431Z,19.60
2019-03-08T11:23:49.404Z,19.70
2019-03-08T11:26:23.551Z,19.70
2019-03-08T11:29:12.519Z,19.70
2019-03-08T11:31:59.490Z,19.70
2019-03-08T11:34:51.921Z,19.70
2019-03-08T11:37:32.921Z,19.70
2019-03-08T11:40:23.575Z,19.80
2019-03-08T11:43:01.468Z,19.70
2019-03-08T11:45:51.435Z,19.70
2019-03-08T11:48:41.896Z,19.80
2019-03-08T11:51:37.136Z,19.80
2019-03-08T11:54:29.611Z,19.80
2019-03-08T11:57:23.437Z,19.80
2019-03-08T12:00:07.523Z,19.80
2019-03-08T12:02:53.191Z,19.80
2019-03-08T12:05:46.316Z,19.80
2019-03-08T12:08:23.755Z,19.80
2019-03-08T12:11:25.291Z,19.80
2019-03-08T12:14:27.971Z,19.80
2019-03-08T12:17:03.603Z,19.80
2019-03-08T12:20:06.171Z,19.80
2019-03-08T12:22:53.011Z,19.80
2019-03-08T12:25:40.820Z,19.80
2019-03-08T12:28:19.860Z,19.70
2019-03-08T12:31:06.072Z,19.80
2019-03-08T12:33:59.439Z,19.70
2019-03-08T12:36:46.416Z,19.70
2019-03-08T12:39:22.815Z,19.70
2019-03-08T12:42:09.945Z,19.70
2019-03-08T12:44:55.947Z,19.80
2019-03-08T12:47:43.232Z,19.80
2019-03-08T12:50:17.295Z,19.80
2019-03-08T12:53:10.722Z,19.90
2019-03-08T12:55:45.752Z,19.90
2019-03-08T12:58:24.879Z,19.90
2019-03-08T13:00:58.891Z,19.90
2019-03-08T13:03:34.579Z,19.90
2019-03-08T13:06:09.267Z,19.90
2019-03-08T13:08:48.522Z,19.90
2019-03-08T13:11:16.739Z,19.90
2019-03-08T13:13:44.745Z,19.90
2019-03-08T13:16:12.860Z,20.00
2019-03-08T13:18:41.079Z,20.00
2019-03-08T13:21:08.923Z,20.00
2019-03-08T13:23:36.832Z,20.00
2019-03-08T13:26:04.703Z,20.00
2019-03-08T13:28:32.567Z,19.90
2019-03-08T13:31:00.684Z,20.00
2019-03-08T13:33:28.588Z,20.00
2019-03-08T13:35:56.772Z,20.00
2019-03-08T13:38:24.639Z,20.00
2019-03-08T13:40:52.479Z,20.00
2019-03-08T13:43:20.420Z,20.00
2019-03-08T13:45:48.259Z,20.00
2019-03-08T13:48:16.131Z,20.00
2019-03-08T13:50:44.055Z,20.00
2019-03-08T13:53:12.271Z,20.00
2019-03-08T13:55:40.157Z,20.00
2019-03-08T13:58:08.367Z,20.00
2019-03-08T14:00:36.521Z,20.00
2019-03-08T14:03:04.659Z,20.00
2019-03-08T14:05:32.506Z,20.00
2019-03-08T14:08:00.380Z,20.00
2019-03-08T14:10:28.520Z,20.00
2019-03-08T14:12:56.420Z,20.00
2019-03-08T14:15:24.269Z,20.00
2019-03-08T14:17:53.243Z,19.90
2019-03-08T14:20:21.445Z,19.90
2019-03-08T14:22:49.451Z,19.90
2019-03-08T14:25:17.371Z,19.90
2019-03-08T14:27:45.215Z,19.90
2019-03-08T14:30:14.245Z,19.90
2019-03-08T14:32:42.550Z,19.90
2019-03-08T14:35:10.491Z,19.90
2019-03-08T14:37:38.336Z,19.90
2019-03-08T14:40:13.635Z,19.90
2019-03-08T14:42:57.028Z,19.90
2019-03-08T14:45:40.575Z,19.90
2019-03-08T14:48:09.465Z,19.90
2019-03-08T14:50:38.920Z,19.90
2019-03-08T14:53:06.767Z,19.90
2019-03-08T14:55:34.635Z,19.90
2019-03-08T14:58:02.482Z,19.90
2019-03-08T15:00:30.721Z,20.00
2019-03-08T15:02:58.972Z,20.00
2019-03-08T15:05:27.455Z,20.00
2019-03-08T15:07:55.782Z,20.10
2019-03-08T15:10:24.003Z,20.00
2019-03-08T15:12:53.162Z,20.10
2019-03-08T15:15:21.268Z,20.10
2019-03-08T15:17:49.631Z,20.10
2019-03-08T15:20:18.727Z,20.10
2019-03-08T15:22:47.030Z,20.10
2019-03-08T15:25:14.922Z,20.10
2019-03-08T15:27:43.166Z,20.20
2019-03-08T15:30:12.463Z,20.10
2019-03-08T15:32:40.313Z,20.20
2019-03-08T15:35:09.224Z,20.20
2019-03-08T15:37:43.911Z,20.20
2019-03-08T15:40:07.981Z,20.20
2019-03-08T15:42:36.852Z,20.20
2019-03-08T15:45:07.028Z,20.20
2019-03-08T15:47:36.232Z,20.20
2019-03-08T15:50:08.270Z,20.20
2019-03-08T15:52:34.919Z,20.20
2019-03-08T15:55:03.128Z,20.20
2019-03-08T15:57:30.999Z,20.20
2019-03-08T15:59:59.012Z,20.20
2019-03-08T16:02:26.883Z,20.20
2019-03-08T16:04:55.093Z,20.20
2019-03-08T16:07:23.226Z,20.10
2019-03-08T16:09:52.344Z,20.20
2019-03-08T16:12:20.195Z,20.20
2019-03-08T16:14:48.055Z,20.20
2019-03-08T16:17:16.175Z,20.20
2019-03-08T16:19:44.448Z,20.30
2019-03-08T16:22:12.604Z,20.20
2019-03-08T16:24:40.443Z,20.30
2019-03-08T16:27:08.287Z,20.30
2019-03-08T16:29:36.136Z,20.30
2019-03-08T16:32:15.853Z,20.30
2019-03-08T16:34:43.680Z,20.20
2019-03-08T16:37:30.631Z,20.20
2019-03-08T16:40:09.153Z,20.30
2019-03-08T16:43:09.036Z,20.30
2019-03-08T16:46:08.839Z,20.30
2019-03-08T16:48:44.126Z,20.30
2019-03-08T16:51:30.385Z,20.40
2019-03-08T16:54:02.212Z,20.30
2019-03-08T16:56:52.300Z,20.40
2019-03-08T16:59:39.271Z,20.40
2019-03-08T17:02:52.599Z,20.40
2019-03-08T17:05:37.057Z,20.40
2019-03-08T17:08:20.196Z,20.40
2019-03-08T17:11:07.523Z,20.40
2019-03-08T17:13:53.616Z,20.40
2019-03-08T17:16:32.111Z,20.40
2019-03-08T17:19:18.934Z,20.40
2019-03-08T17:22:09.639Z,20.40
2019-03-08T17:25:14.844Z,20.50
2019-03-08T17:28:14.043Z,20.50
2019-03-08T17:31:04.151Z,20.50
2019-03-08T17:33:41.261Z,20.50
2019-03-08T17:36:27.187Z,20.50
2019-03-08T17:39:14.445Z,20.50
2019-03-08T17:42:01.419Z,20.50
2019-03-08T17:44:57.516Z,20.50
2019-03-08T17:47:44.495Z,20.50
2019-03-08T17:50:37.343Z,20.50
2019-03-08T17:53:22.925Z,20.50
2019-03-08T17:56:13.228Z,20.50
2019-03-08T17:58:56.985Z,20.40
2019-03-08T18:01:47.668Z,20.40
2019-03-08T18:04:37.748Z,20.40
2019-03-08T18:07:33.941Z,20.40
2019-03-08T18:10:23.749Z,20.40
2019-03-08T18:13:10.739Z,20.40
2019-03-08T18:15:56.676Z,20.30
2019-03-08T18:18:42.992Z,20.30
2019-03-08T18:21:27.728Z,20.20
2019-03-08T18:24:20.510Z,20.10
2019-03-08T18:26:59.235Z,20.10
2019-03-08T18:29:43.493Z,20.10
2019-03-08T18:32:24.291Z,20.10
2019-03-08T18:35:29.715Z,20.10
2019-03-08T18:38:06.565Z,20.10
2019-03-08T18:40:49.360Z,20.10
2019-03-08T18:43:36.596Z,20.10
2019-03-08T18:46:19.413Z,20.00
2019-03-08T18:48:54.964Z,20.00
2019-03-08T18:51:29.583Z,20.10
2019-03-08T18:54:19.400Z,20.00
2019-03-08T18:56:58.417Z,20.00
2019-03-08T18:59:49.192Z,20.00
2019-03-08T19:02:44.716Z,20.00
2019-03-08T19:05:27.734Z,20.00
2019-03-08T19:08:01.832Z,20.00
2019-03-08T19:10:58.170Z,20.00
2019-03-08T19:13:44.279Z,20.00
2019-03-08T19:16:29.906Z,20.00
2019-03-08T19:19:16.964Z,20.00
2019-03-08T19:21:57.436Z,19.90
2019-03-08T19:24:33.791Z,20.00
2019-03-08T19:27:39.167Z,20.00
2019-03-08T19:30:28.120Z,20.00
2019-03-08T19:33:08.279Z,20.00
2019-03-08T19:36:10.611Z,20.00
2019-03-08T19:39:03.676Z,20.00
2019-03-08T19:41:57.775Z,20.00
2019-03-08T19:44:33.408Z,20.00
2019-03-08T19:47:09.780Z,20.00
2019-03-08T19:50:05.688Z,20.00
2019-03-08T19:52:44.618Z,19.90
2019-03-08T19:55:16.386Z,19.90
2019-03-08T19:58:12.439Z,20.00
2019-03-08T20:00:52.877Z,20.00
2019-03-08T20:03:51.992Z,20.00
2019-03-08T20:06:54.639Z,20.00
2019-03-08T20:09:37.783Z,19.90
2019-03-08T20:12:21.007Z,19.90
2019-03-08T20:15:06.931Z,20.00
2019-03-08T20:17:44.595Z,20.00
2019-03-08T20:20:22.191Z,19.90
2019-03-08T20:23:08.119Z,19.90
2019-03-08T20:25:54.115Z,20.00
2019-03-08T20:28:44.056Z,19.90
2019-03-08T20:31:36.275Z,19.90
2019-03-08T20:34:11.028Z,19.90
2019-03-08T20:36:59.993Z,19.90
2019-03-08T20:39:46.565Z,19.90
2019-03-08T20:42:22.743Z,19.90
2019-03-08T20:45:12.779Z,19.90
2019-03-08T20:47:40.615Z,19.90
2019-03-08T20:50:09.776Z,19.90
2019-03-08T20:52:37.951Z,19.90
2019-03-08T20:55:06.064Z,19.90
2019-03-08T20:57:34.307Z,19.90
2019-03-08T21:00:02.157Z,20.00
2019-03-08T21:02:30.561Z,20.00
2019-03-08T21:04:58.408Z,20.00
2019-03-08T21:07:26.257Z,20.00
2019-03-08T21:09:54.179Z,20.00
2019-03-08T21:12:22.019Z,20.00
2019-03-08T21:14:52.019Z,20.00
2019-03-08T21:17:20.423Z,20.00
2019-03-08T21:19:48.360Z,20.00
2019-03-08T21:22:16.199Z,20.00
2019-03-08T21:24:44.066Z,20.00
2019-03-08T21:27:11.907Z,20.00
2019-03-08T21:29:39.779Z,20.00
2019-03-08T21:32:07.663Z,20.00
2019-03-08T21:34:35.604Z,20.00
2019-03-08T21:37:03.451Z,20.00
2019-03-08T21:39:31.329Z,20.00
2019-03-08T21:41:59.176Z,20.00
2019-03-08T21:44:27.059Z,19.90
2019-03-08T21:46:54.912Z,19.90
2019-03-08T21:49:22.772Z,20.00
2019-03-08T21:51:50.936Z,19.90
2019-03-08T21:54:18.784Z,19.90
2019-03-08T21:56:47.004Z,19.90
2019-03-08T21:59:15.220Z,19.90
2019-03-08T22:01:43.064Z,19.90
2019-03-08T22:04:36.334Z,19.90
2019-03-08T22:07:04.964Z,19.90
2019-03-08T22:09:42.196Z,19.90
2019-03-08T22:12:10.150Z,19.90
2019-03-08T22:14:37.991Z,19.90
2019-03-08T22:17:05.887Z,19.90
2019-03-08T22:19:34.388Z,19.90
2019-03-08T22:22:02.863Z,19.90
2019-03-08T22:24:30.712Z,19.90
2019-03-08T22:26:58.559Z,19.90
2019-03-08T22:29:26.405Z,19.90
2019-03-08T22:31:54.259Z,19.90
2019-03-08T22:34:22.455Z,19.80
2019-03-08T22:36:50.379Z,19.90
2019-03-08T22:39:18.543Z,19.80
2019-03-08T22:41:46.475Z,19.90
2019-03-08T22:44:14.648Z,19.80
2019-03-08T22:46:45.494Z,19.80
2019-03-08T22:49:12.715Z,19.80
2019-03-08T22:51:40.612Z,19.80
2019-03-08T22:54:08.758Z,19.70
2019-03-08T22:56:36.623Z,19.70
2019-03-08T22:59:04.468Z,19.70
2019-03-08T23:02:00.687Z,19.70
2019-03-08T23:04:28.600Z,19.70
2019-03-08T23:06:56.499Z,19.70
2019-03-08T23:09:24.344Z,19.70
2019-03-08T23:11:52.681Z,19.70
2019-03-08T23:14:20.528Z,19.70
2019-03-08T23:16:48.731Z,19.70
2019-03-08T23:19:16.579Z,19.70
2019-03-08T23:21:44.443Z,19.60
2019-03-08T23:24:12.290Z,19.60
2019-03-08T23:26:49.239Z,19.60
2019-03-08T23:29:24.055Z,19.60
2019-03-08T23:32:05.290Z,19.60
2019-03-08T23:34:33.399Z,19.60
2019-03-08T23:37:01.271Z,19.60
2019-03-08T23:39:29.119Z,19.60
2019-03-08T23:41:56.988Z,19.60
2019-03-08T23:44:24.903Z,19.50
2019-03-08T23:46:53.031Z,19.50
2019-03-08T23:49:21.203Z,19.50
2019-03-08T23:51:49.087Z,19.60
2019-03-08T23:54:17.656Z,19.50
2019-03-08T23:56:45.955Z,19.50
2019-03-08T23:59:14.184Z,19.40
